Time;durP1;ratioP1;P1;durP2;ratioP2;P2;SDS_P1;SDS_P2;PMS_P1;PMS_P2;Temp;Humidity;BMP_temperature;BMP_pressure;BME280_temperature;BME280_humidity;BME280_pressure;Samples;Min_cycle;Max_cycle;Signal;HPM_P1;HPM_P2
2022/12/06 00:01:20;;;;;;;3.53;3.20;;;;;;;;;;5003959;28;20290;-62
2022/12/06 00:03:47;;;;;;;3.47;3.10;;;;;;;;;;5003551;28;20353;-62
2022/12/06 00:06:16;;;;;;;3.50;3.20;;;;;;;;;;5010731;28;20242;-63
2022/12/06 00:08:45;;;;;;;3.77;3.47;;;;;;;;;;4988885;28;20321;-63
2022/12/06 00:11:17;;;;;;;3.23;3.00;;;;;;;;;;5007022;28;20217;-63
2022/12/06 00:13:45;;;;;;;4.23;3.93;;;;;;;;;;4987856;28;20423;-62
2022/12/06 00:16:14;;;;;;;3.80;3.40;;;;;;;;;;4985623;28;20211;-64
2022/12/06 00:18:44;;;;;;;3.70;3.40;;;;;;;;;;5005247;28;22264;-63
2022/12/06 00:21:22;;;;;;;3.57;3.27;;;;;;;;;;4985264;28;20222;-63
2022/12/06 00:23:54;;;;;;;4.20;3.80;;;;;;;;;;5022954;28;20276;-63
2022/12/06 00:26:22;;;;;;;4.60;3.93;;;;;;;;;;5019002;28;20231;-62
2022/12/06 00:28:51;;;;;;;4.30;3.90;;;;;;;;;;5011105;28;20311;-61
2022/12/06 00:31:20;;;;;;;4.43;3.40;;;;;;;;;;5012793;28;20222;-63
2022/12/06 00:33:47;;;;;;;3.83;3.53;;;;;;;;;;5026060;28;20233;-63
2022/12/06 00:36:16;;;;;;;3.57;3.27;;;;;;;;;;5012682;28;20256;-63
2022/12/06 00:38:44;;;;;;;3.60;3.30;;;;;;;;;;4987762;28;20211;-63
2022/12/06 00:41:12;;;;;;;4.00;3.60;;;;;;;;;;5003853;28;20285;-63
2022/12/06 00:43:40;;;;;;;4.57;3.80;;;;;;;;;;5006681;28;20327;-63
2022/12/06 00:46:08;;;;;;;3.57;3.27;;;;;;;;;;4999950;28;20245;-63
2022/12/06 00:48:36;;;;;;;3.57;3.27;;;;;;;;;;5003591;28;20207;-63
2022/12/06 00:51:03;;;;;;;3.90;3.60;;;;;;;;;;4999482;28;20241;-62
2022/12/06 00:53:30;;;;;;;4.67;3.63;;;;;;;;;;5010100;28;20245;-63
2022/12/06 00:55:58;;;;;;;4.20;3.90;;;;;;;;;;5000814;28;20242;-62
2022/12/06 00:58:25;;;;;;;4.43;3.90;;;;;;;;;;5007854;28;20203;-61
2022/12/06 01:00:53;;;;;;;4.27;3.87;;;;;;;;;;4984805;28;20215;-62
2022/12/06 01:03:20;;;;;;;4.30;3.90;;;;;;;;;;4990533;28;20208;-62
2022/12/06 01:05:49;;;;;;;4.47;4.07;;;;;;;;;;5027304;28;20266;-62
2022/12/06 01:08:17;;;;;;;3.80;3.43;;;;;;;;;;5023961;28;20285;-62
2022/12/06 01:10:52;;;;;;;4.57;4.07;;;;;;;;;;5026666;28;20234;-61
2022/12/06 01:13:20;;;;;;;4.23;3.60;;;;;;;;;;5019626;28;20198;-64
2022/12/06 01:15:47;;;;;;;4.03;3.60;;;;;;;;;;4990414;28;20199;-62
2022/12/06 01:18:14;;;;;;;3.67;3.37;;;;;;;;;;5006988;28;20234;-62
2022/12/06 01:20:42;;;;;;;3.30;3.10;;;;;;;;;;4997419;28;20297;-62
2022/12/06 01:23:09;;;;;;;4.17;3.77;;;;;;;;;;4990849;28;20271;-62
2022/12/06 01:25:37;;;;;;;4.23;3.60;;;;;;;;;;4991450;28;20223;-62
2022/12/06 01:28:04;;;;;;;4.27;3.73;;;;;;;;;;5008409;28;20253;-62
2022/12/06 01:30:32;;;;;;;4.07;3.67;;;;;;;;;;4999728;28;20214;-63
2022/12/06 01:32:59;;;;;;;3.93;3.63;;;;;;;;;;5009397;28;20674;-61
2022/12/06 01:35:27;;;;;;;3.57;3.27;;;;;;;;;;4986581;28;20206;-61
2022/12/06 01:37:54;;;;;;;3.50;3.20;;;;;;;;;;5002465;28;20740;-62
2022/12/06 01:40:21;;;;;;;3.33;3.03;;;;;;;;;;5010422;28;20203;-62
2022/12/06 01:42:50;;;;;;;3.50;3.20;;;;;;;;;;5001590;28;20222;-62
2022/12/06 01:45:17;;;;;;;3.60;3.30;;;;;;;;;;4984873;28;20288;-62
2022/12/06 01:47:45;;;;;;;3.07;2.87;;;;;;;;;;5003719;28;20285;-61
2022/12/06 01:50:22;;;;;;;3.30;3.10;;;;;;;;;;5006131;28;20249;-62
2022/12/06 01:52:58;;;;;;;3.27;2.90;;;;;;;;;;5005171;28;20589;-62
2022/12/06 01:55:27;;;;;;;3.43;3.13;;;;;;;;;;5001101;28;20230;-62
2022/12/06 01:57:57;;;;;;;3.20;3.00;;;;;;;;;;5006602;28;20288;-62
2022/12/06 02:00:26;;;;;;;2.87;2.63;;;;;;;;;;5002553;28;20349;-63
2022/12/06 02:02:54;;;;;;;3.30;3.00;;;;;;;;;;4986428;28;20739;-62
2022/12/06 02:05:21;;;;;;;3.37;3.07;;;;;;;;;;4992584;28;20744;-62
2022/12/06 02:07:49;;;;;;;3.33;3.03;;;;;;;;;;5006025;28;20330;-62
2022/12/06 02:10:17;;;;;;;3.63;3.30;;;;;;;;;;5001254;28;20562;-62
2022/12/06 02:12:47;;;;;;;3.43;3.13;;;;;;;;;;4998552;28;20238;-61
2022/12/06 02:15:14;;;;;;;3.37;3.07;;;;;;;;;;4999127;28;20368;-62
2022/12/06 02:17:50;;;;;;;4.03;2.87;;;;;;;;;;5000464;28;20623;-62
2022/12/06 02:20:30;;;;;;;3.30;3.00;;;;;;;;;;4989049;28;20218;-62
2022/12/06 02:23:16;;;;;;;3.97;3.57;;;;;;;;;;5004466;28;20302;-61
2022/12/06 02:26:02;;;;;;;5.03;4.10;;;;;;;;;;4981090;28;20306;-62
2022/12/06 02:28:51;;;;;;;4.20;3.80;;;;;;;;;;4998662;28;20203;-61
2022/12/06 02:31:25;;;;;;;3.90;3.57;;;;;;;;;;5002886;28;20214;-61
2022/12/06 02:34:03;;;;;;;6.30;5.10;;;;;;;;;;4997460;28;20250;-62
2022/12/06 02:36:45;;;;;;;4.30;3.87;;;;;;;;;;4981283;28;20210;-62
2022/12/06 02:39:19;;;;;;;5.50;4.43;;;;;;;;;;4986431;28;20554;-62
2022/12/06 02:41:52;;;;;;;5.33;4.20;;;;;;;;;;5008213;28;20812;-61
2022/12/06 02:44:25;;;;;;;6.60;4.60;;;;;;;;;;5008416;28;20242;-62
2022/12/06 02:46:53;;;;;;;7.00;5.50;;;;;;;;;;4983128;28;20318;-63
2022/12/06 02:49:22;;;;;;;8.07;5.53;;;;;;;;;;5007714;28;20285;-62
2022/12/06 02:51:51;;;;;;;12.20;7.07;;;;;;;;;;5009367;28;20580;-62
2022/12/06 02:54:19;;;;;;;11.50;7.17;;;;;;;;;;4983796;28;20215;-62
2022/12/06 02:56:47;;;;;;;12.33;6.60;;;;;;;;;;4991652;28;20234;-62
2022/12/06 02:59:14;;;;;;;8.30;6.43;;;;;;;;;;5016856;28;20195;-62
2022/12/06 03:01:44;;;;;;;8.90;5.97;;;;;;;;;;4989163;28;20209;-62
2022/12/06 03:04:33;;;;;;;8.83;6.50;;;;;;;;;;5008971;28;20525;-62
2022/12/06 03:07:20;;;;;;;9.53;6.77;;;;;;;;;;5021826;28;20277;-61
2022/12/06 03:10:06;;;;;;;11.30;7.47;;;;;;;;;;5024952;28;20245;-62
2022/12/06 03:12:55;;;;;;;14.83;9.17;;;;;;;;;;5015464;28;20234;-62
2022/12/06 03:15:41;;;;;;;8.90;6.97;;;;;;;;;;5005766;28;20731;-63
2022/12/06 03:18:08;;;;;;;7.63;5.80;;;;;;;;;;4995903;28;20286;-62
2022/12/06 03:20:41;;;;;;;4.63;4.23;;;;;;;;;;4987763;28;20302;-60
2022/12/06 03:23:15;;;;;;;3.20;2.90;;;;;;;;;;5008585;28;20276;-62
2022/12/06 03:25:43;;;;;;;3.03;2.83;;;;;;;;;;4991478;28;20318;-60
2022/12/06 03:28:13;;;;;;;3.03;2.73;;;;;;;;;;4985421;28;20256;-60
2022/12/06 03:30:42;;;;;;;2.83;2.60;;;;;;;;;;4995421;28;20203;-61
2022/12/06 03:33:11;;;;;;;3.20;2.90;;;;;;;;;;4988391;28;20203;-60
2022/12/06 03:35:39;;;;;;;2.87;2.60;;;;;;;;;;5009618;28;20591;-62
2022/12/06 03:38:16;;;;;;;3.33;3.07;;;;;;;;;;5004575;28;20297;-62
2022/12/06 03:40:45;;;;;;;3.40;3.10;;;;;;;;;;4988750;28;20262;-62
2022/12/06 03:43:13;;;;;;;3.57;3.27;;;;;;;;;;5006374;28;20257;-62
2022/12/06 03:46:04;;;;;;;3.93;3.60;;;;;;;;;;4984135;28;20764;-63
2022/12/06 03:48:35;;;;;;;3.63;3.33;;;;;;;;;;4976922;28;20859;-61
2022/12/06 03:51:10;;;;;;;4.13;3.73;;;;;;;;;;4986346;28;20685;-63
2022/12/06 03:53:45;;;;;;;4.13;3.63;;;;;;;;;;5000779;28;20321;-64
2022/12/06 03:56:13;;;;;;;4.00;3.60;;;;;;;;;;4999360;28;20224;-63
2022/12/06 03:58:41;;;;;;;4.33;3.90;;;;;;;;;;4987979;28;20222;-63
2022/12/06 04:01:08;;;;;;;4.80;4.03;;;;;;;;;;5006257;28;20206;-62
2022/12/06 04:03:37;;;;;;;4.20;3.80;;;;;;;;;;4985520;28;20782;-63
2022/12/06 04:06:06;;;;;;;4.90;4.30;;;;;;;;;;4978834;28;20245;-63
2022/12/06 04:08:33;;;;;;;4.63;4.23;;;;;;;;;;5007052;28;20704;-63
2022/12/06 04:11:01;;;;;;;6.10;4.30;;;;;;;;;;5005366;28;23148;-62
2022/12/06 04:13:28;;;;;;;4.97;4.53;;;;;;;;;;5008192;28;20325;-61
2022/12/06 04:15:57;;;;;;;7.47;4.90;;;;;;;;;;5003128;28;20222;-62
2022/12/06 04:18:25;;;;;;;10.67;5.00;;;;;;;;;;4991822;28;20875;-61
2022/12/06 04:23:39;;;;;;;5.20;4.70;;;;;;;;;;5021130;28;20254;-62
2022/12/06 04:26:07;;;;;;;7.63;6.03;;;;;;;;;;5041442;28;20691;-61
2022/12/06 04:39:40;;;;;;;22.00;12.97;;;;;;;;;;5033045;28;20916;-61
2022/12/06 04:44:57;;;;;;;14.93;8.60;;;;;;;;;;5046530;28;20308;-61
2022/12/06 04:47:25;;;;;;;15.87;10.83;;;;;;;;;;4999563;28;20302;-61
2022/12/06 04:49:52;;;;;;;11.23;7.80;;;;;;;;;;5012972;28;20256;-62
2022/12/06 04:52:20;;;;;;;8.60;7.70;;;;;;;;;;4981888;28;20338;-62
2022/12/06 04:54:48;;;;;;;10.47;8.57;;;;;;;;;;5012318;28;20683;-60
2022/12/06 04:57:19;;;;;;;7.87;6.50;;;;;;;;;;5003567;28;20304;-62
2022/12/06 04:59:48;;;;;;;6.13;4.93;;;;;;;;;;4990612;28;20207;-62
2022/12/06 05:02:15;;;;;;;16.10;14.50;;;;;;;;;;4982439;28;20269;-61
2022/12/06 05:04:42;;;;;;;9.70;8.80;;;;;;;;;;5006091;28;20462;-61
2022/12/06 05:07:10;;;;;;;6.17;5.57;;;;;;;;;;5035134;28;20281;-61
2022/12/06 05:09:38;;;;;;;7.80;6.77;;;;;;;;;;5006106;28;20286;-61
2022/12/06 05:12:05;;;;;;;6.20;5.63;;;;;;;;;;5027363;28;20290;-61
2022/12/06 05:14:33;;;;;;;5.23;4.73;;;;;;;;;;5009107;28;20337;-62
2022/12/06 05:17:00;;;;;;;5.83;5.20;;;;;;;;;;5005579;28;20300;-62
2022/12/06 05:19:28;;;;;;;9.73;7.40;;;;;;;;;;4983678;28;20302;-62
2022/12/06 05:21:55;;;;;;;12.30;8.33;;;;;;;;;;4996869;28;20207;-62
2022/12/06 05:24:22;;;;;;;6.20;5.30;;;;;;;;;;5005565;28;20218;-61
2022/12/06 05:26:50;;;;;;;6.13;5.07;;;;;;;;;;5002061;28;20666;-61
2022/12/06 05:29:18;;;;;;;6.27;5.23;;;;;;;;;;4999273;28;20203;-61
2022/12/06 05:31:46;;;;;;;6.93;5.77;;;;;;;;;;4994884;28;21060;-62
2022/12/06 05:34:14;;;;;;;6.27;5.37;;;;;;;;;;5002315;28;20258;-59
2022/12/06 05:36:44;;;;;;;6.63;5.40;;;;;;;;;;5002746;28;20206;-63
2022/12/06 05:39:11;;;;;;;6.77;5.17;;;;;;;;;;4996313;28;20982;-60
2022/12/06 05:41:39;;;;;;;5.53;4.87;;;;;;;;;;5006066;28;20226;-62
2022/12/06 05:44:06;;;;;;;6.80;6.00;;;;;;;;;;4999985;28;20230;-61
2022/12/06 05:46:33;;;;;;;6.53;5.33;;;;;;;;;;4988148;28;20309;-63
2022/12/06 05:49:01;;;;;;;7.97;6.00;;;;;;;;;;4986413;28;20203;-61
2022/12/06 05:51:28;;;;;;;7.20;6.47;;;;;;;;;;5023976;28;20225;-61
2022/12/06 05:53:56;;;;;;;8.30;7.13;;;;;;;;;;5021527;28;20253;-62
2022/12/06 05:56:23;;;;;;;6.93;6.23;;;;;;;;;;5025975;28;20203;-62
2022/12/06 05:58:51;;;;;;;5.77;5.23;;;;;;;;;;4991101;28;20211;-61
2022/12/06 06:01:18;;;;;;;6.13;5.43;;;;;;;;;;4995246;28;20219;-62
2022/12/06 06:03:45;;;;;;;6.10;5.47;;;;;;;;;;4999474;28;20975;-61
2022/12/06 06:06:14;;;;;;;6.63;5.57;;;;;;;;;;4979242;28;20231;-61
2022/12/06 06:08:41;;;;;;;6.40;5.77;;;;;;;;;;5000884;28;20239;-61
2022/12/06 06:11:09;;;;;;;7.90;6.90;;;;;;;;;;4988050;28;20207;-61
2022/12/06 06:13:36;;;;;;;8.60;7.70;;;;;;;;;;4987534;28;20357;-61
2022/12/06 06:16:04;;;;;;;8.63;7.43;;;;;;;;;;5005732;28;20297;-61
2022/12/06 06:18:31;;;;;;;7.80;7.00;;;;;;;;;;4997085;28;20238;-63
2022/12/06 06:20:59;;;;;;;8.13;6.43;;;;;;;;;;5003480;28;20581;-63
2022/12/06 06:23:28;;;;;;;7.57;6.73;;;;;;;;;;5012967;28;20230;-62
2022/12/06 06:25:55;;;;;;;6.70;5.67;;;;;;;;;;5006369;28;20227;-65
2022/12/06 06:28:23;;;;;;;6.43;5.80;;;;;;;;;;5012080;28;20202;-62
2022/12/06 06:30:50;;;;;;;6.97;6.20;;;;;;;;;;4991777;28;20219;-63
2022/12/06 06:33:18;;;;;;;7.17;6.27;;;;;;;;;;4995078;28;20230;-61
2022/12/06 06:35:45;;;;;;;8.07;6.37;;;;;;;;;;5009173;28;20217;-61
2022/12/06 06:38:13;;;;;;;7.70;6.90;;;;;;;;;;4992149;28;20301;-63
2022/12/06 06:40:40;;;;;;;19.43;11.67;;;;;;;;;;5003454;28;20783;-62
2022/12/06 06:43:17;;;;;;;28.47;15.87;;;;;;;;;;5006601;28;20752;-63
2022/12/06 06:45:45;;;;;;;25.30;13.93;;;;;;;;;;4992374;28;20350;-62
2022/12/06 06:48:13;;;;;;;10.13;7.10;;;;;;;;;;4977925;28;20208;-62
2022/12/06 06:50:41;;;;;;;9.73;6.60;;;;;;;;;;4996884;28;20210;-62
2022/12/06 06:53:09;;;;;;;7.70;6.17;;;;;;;;;;5005558;28;20353;-62
2022/12/06 06:55:36;;;;;;;7.70;6.60;;;;;;;;;;5004799;28;20203;-61
2022/12/06 06:58:05;;;;;;;8.23;6.47;;;;;;;;;;4993813;28;20607;-63
2022/12/06 07:00:32;;;;;;;13.47;8.93;;;;;;;;;;5009135;28;20321;-61
2022/12/06 07:03:00;;;;;;;11.00;7.93;;;;;;;;;;5005904;28;20206;-62
2022/12/06 07:05:27;;;;;;;8.03;7.00;;;;;;;;;;5029801;28;20258;-63
2022/12/06 07:07:56;;;;;;;9.07;7.17;;;;;;;;;;5002684;28;20262;-62
2022/12/06 07:10:27;;;;;;;8.03;6.70;;;;;;;;;;5021534;28;20226;-60
2022/12/06 07:12:54;;;;;;;6.73;6.00;;;;;;;;;;5031144;28;20219;-62
2022/12/06 07:15:22;;;;;;;6.00;5.30;;;;;;;;;;4987342;28;20231;-62
2022/12/06 07:17:50;;;;;;;5.90;4.90;;;;;;;;;;4990937;28;20213;-63
2022/12/06 07:20:17;;;;;;;5.67;5.10;;;;;;;;;;5008858;28;20309;-62
2022/12/06 07:22:45;;;;;;;12.20;7.93;;;;;;;;;;5010578;28;20290;-60
2022/12/06 07:25:13;;;;;;;16.33;10.43;;;;;;;;;;5006726;28;20364;-60
2022/12/06 07:27:40;;;;;;;23.93;14.13;;;;;;;;;;4996459;28;21636;-61
2022/12/06 07:30:08;;;;;;;41.83;20.73;;;;;;;;;;4991758;28;20293;-62
2022/12/06 07:32:40;;;;;;;29.63;15.17;;;;;;;;;;4995046;28;20351;-62
2022/12/06 07:35:08;;;;;;;20.93;11.97;;;;;;;;;;4988367;28;20233;-62
2022/12/06 07:37:35;;;;;;;20.60;11.47;;;;;;;;;;4992699;28;20214;-62
2022/12/06 07:40:03;;;;;;;19.13;11.03;;;;;;;;;;5006906;28;20284;-61
2022/12/06 07:45:16;;;;;;;15.67;10.87;;;;;;;;;;5013525;28;20235;-61
2022/12/06 07:47:43;;;;;;;14.20;9.67;;;;;;;;;;4990386;28;20238;-61
2022/12/06 07:50:13;;;;;;;12.20;9.03;;;;;;;;;;5008254;28;20214;-61
2022/12/06 07:52:45;;;;;;;10.83;8.67;;;;;;;;;;5011121;28;20218;-61
2022/12/06 07:55:12;;;;;;;10.97;8.37;;;;;;;;;;4994567;28;20610;-64
2022/12/06 07:57:40;;;;;;;11.07;8.80;;;;;;;;;;5008968;28;20214;-61
2022/12/06 08:00:11;;;;;;;11.13;8.77;;;;;;;;;;5013706;28;20226;-61
2022/12/06 08:02:38;;;;;;;11.67;7.97;;;;;;;;;;5011783;28;20207;-61
2022/12/06 08:05:06;;;;;;;11.47;8.27;;;;;;;;;;5009268;28;20281;-59
2022/12/06 08:07:33;;;;;;;12.17;9.17;;;;;;;;;;5008518;28;20234;-61
2022/12/06 08:10:00;;;;;;;12.07;9.00;;;;;;;;;;4986454;28;20218;-62
2022/12/06 08:12:30;;;;;;;11.90;8.77;;;;;;;;;;5001794;28;20208;-63
2022/12/06 08:14:58;;;;;;;11.07;8.43;;;;;;;;;;5005392;28;20595;-63
2022/12/06 08:17:27;;;;;;;12.23;9.53;;;;;;;;;;4991200;28;20207;-62
2022/12/06 08:19:54;;;;;;;12.10;8.87;;;;;;;;;;4987072;28;20685;-63
2022/12/06 08:22:21;;;;;;;12.87;9.57;;;;;;;;;;5014678;28;20285;-63
2022/12/06 08:24:49;;;;;;;13.33;10.27;;;;;;;;;;5026988;28;20620;-60
2022/12/06 08:27:16;;;;;;;14.37;10.40;;;;;;;;;;5011545;28;20258;-61
2022/12/06 08:29:44;;;;;;;15.10;10.10;;;;;;;;;;5004128;28;20239;-64
2022/12/06 08:32:12;;;;;;;16.13;11.03;;;;;;;;;;5006956;28;20285;-64
2022/12/06 08:34:39;;;;;;;16.73;11.93;;;;;;;;;;5002032;28;20226;-62
2022/12/06 08:37:06;;;;;;;18.37;12.43;;;;;;;;;;4985862;28;20211;-61
2022/12/06 08:39:34;;;;;;;17.17;12.37;;;;;;;;;;4990145;28;20206;-60
2022/12/06 08:42:02;;;;;;;15.07;11.30;;;;;;;;;;4988767;28;20211;-61
2022/12/06 08:44:31;;;;;;;18.20;12.23;;;;;;;;;;5006634;28;20226;-60
2022/12/06 08:47:00;;;;;;;17.03;11.57;;;;;;;;;;4988250;28;20644;-63
2022/12/06 08:49:28;;;;;;;20.57;13.33;;;;;;;;;;5006614;28;20341;-61
2022/12/06 08:51:57;;;;;;;26.47;15.10;;;;;;;;;;4983154;28;20200;-61
2022/12/06 08:54:25;;;;;;;26.07;15.60;;;;;;;;;;5001010;28;20341;-61
2022/12/06 08:56:53;;;;;;;22.03;14.10;;;;;;;;;;5008046;28;20207;-61
2022/12/06 08:59:20;;;;;;;20.53;13.80;;;;;;;;;;4988076;28;20293;-60
2022/12/06 09:01:50;;;;;;;20.13;12.90;;;;;;;;;;4992146;28;20302;-63
2022/12/06 09:04:17;;;;;;;23.63;14.13;;;;;;;;;;5010695;28;20231;-63
2022/12/06 09:06:45;;;;;;;22.67;13.90;;;;;;;;;;5014951;28;20243;-63
2022/12/06 09:09:14;;;;;;;16.47;12.20;;;;;;;;;;5012073;28;20289;-63
2022/12/06 09:11:42;;;;;;;16.93;11.37;;;;;;;;;;5014998;28;20286;-63
2022/12/06 09:14:11;;;;;;;13.93;10.47;;;;;;;;;;5011811;28;20222;-63
2022/12/06 09:16:48;;;;;;;12.83;9.80;;;;;;;;;;5013781;28;21196;-62
2022/12/06 09:19:15;;;;;;;10.13;7.87;;;;;;;;;;5004005;28;20246;-63
2022/12/06 09:21:43;;;;;;;13.60;9.77;;;;;;;;;;5000202;28;20284;-61
2022/12/06 09:24:15;;;;;;;10.10;8.20;;;;;;;;;;5005242;28;20313;-62
2022/12/06 09:26:42;;;;;;;11.87;8.97;;;;;;;;;;5000444;28;21080;-61
2022/12/06 09:29:10;;;;;;;13.67;9.03;;;;;;;;;;5008392;28;20700;-61
2022/12/06 09:31:39;;;;;;;10.80;8.70;;;;;;;;;;5009228;28;21007;-61
2022/12/06 09:34:11;;;;;;;12.63;8.60;;;;;;;;;;4988837;28;20233;-62
2022/12/06 09:36:44;;;;;;;11.73;8.77;;;;;;;;;;5003447;28;20644;-61
2022/12/06 09:39:18;;;;;;;12.00;9.00;;;;;;;;;;5009768;28;20220;-62
2022/12/06 09:41:48;;;;;;;12.17;9.47;;;;;;;;;;5005318;28;20215;-62
2022/12/06 09:44:16;;;;;;;16.37;10.23;;;;;;;;;;4990782;28;21036;-62
2022/12/06 09:47:03;;;;;;;13.63;8.90;;;;;;;;;;4975275;28;20531;-62
2022/12/06 09:49:30;;;;;;;11.00;8.33;;;;;;;;;;4992834;28;20860;-61
2022/12/06 09:52:16;;;;;;;11.53;8.33;;;;;;;;;;5010608;28;20202;-64
2022/12/06 09:55:03;;;;;;;10.30;8.00;;;;;;;;;;4984715;28;20413;-61
2022/12/06 09:57:51;;;;;;;10.67;8.53;;;;;;;;;;5012795;28;20680;-62
2022/12/06 10:00:21;;;;;;;12.37;8.47;;;;;;;;;;4991581;28;20310;-62
2022/12/06 10:03:17;;;;;;;19.97;10.50;;;;;;;;;;4997873;28;20206;-63
2022/12/06 10:06:01;;;;;;;14.90;9.47;;;;;;;;;;4996135;28;20435;-62
2022/12/06 10:08:35;;;;;;;16.17;10.27;;;;;;;;;;4990963;28;20226;-61
2022/12/06 10:11:15;;;;;;;15.23;10.43;;;;;;;;;;5006157;28;20241;-62
2022/12/06 10:14:02;;;;;;;10.30;7.50;;;;;;;;;;5005522;28;20298;-62
2022/12/06 10:16:29;;;;;;;8.97;7.27;;;;;;;;;;4986038;28;20288;-62
2022/12/06 10:19:03;;;;;;;9.47;7.37;;;;;;;;;;5010438;28;20214;-62
2022/12/06 10:21:45;;;;;;;8.63;7.13;;;;;;;;;;4992987;28;20217;-62
2022/12/06 10:24:15;;;;;;;10.20;7.43;;;;;;;;;;5014757;28;20756;-62
2022/12/06 10:26:53;;;;;;;10.30;8.13;;;;;;;;;;4988771;28;20235;-63
2022/12/06 10:29:22;;;;;;;9.13;7.90;;;;;;;;;;5006545;28;22946;-62
2022/12/06 10:31:57;;;;;;;8.83;7.77;;;;;;;;;;5010366;28;20217;-62
2022/12/06 10:34:43;;;;;;;8.73;7.17;;;;;;;;;;4990736;28;20225;-63
2022/12/06 10:37:19;;;;;;;9.80;7.53;;;;;;;;;;4997028;28;20566;-62
2022/12/06 10:39:55;;;;;;;10.13;7.90;;;;;;;;;;5008978;28;21101;-61
2022/12/06 10:42:26;;;;;;;9.10;7.53;;;;;;;;;;4998011;28;20943;-62
2022/12/06 10:44:59;;;;;;;10.40;7.93;;;;;;;;;;5003687;28;20282;-62
2022/12/06 10:47:32;;;;;;;9.67;8.10;;;;;;;;;;4992272;28;20684;-62
2022/12/06 10:50:13;;;;;;;8.97;7.50;;;;;;;;;;5007633;28;20218;-62
2022/12/06 10:52:45;;;;;;;7.77;6.97;;;;;;;;;;5012214;28;20203;-61
2022/12/06 10:55:17;;;;;;;7.73;6.67;;;;;;;;;;5005340;28;20235;-61
2022/12/06 10:57:49;;;;;;;8.30;6.83;;;;;;;;;;5003601;28;20305;-61
2022/12/06 11:00:19;;;;;;;9.90;7.93;;;;;;;;;;5011116;28;20431;-62
2022/12/06 11:02:59;;;;;;;9.43;7.97;;;;;;;;;;4996485;28;20207;-62
2022/12/06 11:05:45;;;;;;;9.87;7.83;;;;;;;;;;5023389;28;20373;-62
2022/12/06 11:08:15;;;;;;;8.80;7.90;;;;;;;;;;5019497;28;20253;-60
2022/12/06 11:10:44;;;;;;;9.07;6.90;;;;;;;;;;5019062;28;20620;-61
2022/12/06 11:13:17;;;;;;;8.73;7.23;;;;;;;;;;5020979;28;20268;-61
2022/12/06 11:15:52;;;;;;;9.03;6.27;;;;;;;;;;5028725;28;20231;-61
2022/12/06 11:18:20;;;;;;;7.40;6.47;;;;;;;;;;5014864;28;20653;-60
2022/12/06 11:20:58;;;;;;;7.57;6.63;;;;;;;;;;5017316;28;20223;-61
2022/12/06 11:23:38;;;;;;;8.03;6.40;;;;;;;;;;5021509;28;20321;-62
2022/12/06 11:26:14;;;;;;;7.40;6.60;;;;;;;;;;5007836;28;20207;-62
2022/12/06 11:28:42;;;;;;;6.30;5.50;;;;;;;;;;5018680;28;20222;-62
2022/12/06 11:31:16;;;;;;;7.27;5.70;;;;;;;;;;5009951;28;20335;-62
2022/12/06 11:33:45;;;;;;;5.83;5.23;;;;;;;;;;4986358;28;20227;-62
2022/12/06 11:36:13;;;;;;;7.07;5.83;;;;;;;;;;5008098;28;20719;-62
2022/12/06 11:38:41;;;;;;;6.80;6.07;;;;;;;;;;5001914;28;20675;-63
2022/12/06 11:41:11;;;;;;;6.90;6.10;;;;;;;;;;5005505;28;20207;-62
2022/12/06 11:43:39;;;;;;;7.43;6.43;;;;;;;;;;5007973;28;20237;-61
2022/12/06 11:46:10;;;;;;;6.30;5.60;;;;;;;;;;5002890;28;20222;-63
2022/12/06 11:48:37;;;;;;;6.33;5.73;;;;;;;;;;5004743;28;20235;-62
2022/12/06 11:51:07;;;;;;;7.47;6.67;;;;;;;;;;5020571;28;20203;-61
2022/12/06 11:53:37;;;;;;;9.33;5.80;;;;;;;;;;5016444;28;20286;-62
2022/12/06 11:56:12;;;;;;;7.20;5.90;;;;;;;;;;5012039;28;20293;-62
2022/12/06 11:58:43;;;;;;;5.87;5.27;;;;;;;;;;5013292;28;20297;-62
2022/12/06 12:01:13;;;;;;;5.47;4.97;;;;;;;;;;5010868;28;20215;-62
2022/12/06 12:03:42;;;;;;;6.00;4.80;;;;;;;;;;5004161;28;20292;-61
2022/12/06 12:06:18;;;;;;;5.57;4.97;;;;;;;;;;5002656;28;20213;-61
2022/12/06 12:09:03;;;;;;;5.97;5.37;;;;;;;;;;5005821;28;20229;-61
2022/12/06 12:11:44;;;;;;;5.70;5.13;;;;;;;;;;5001219;28;20277;-61
2022/12/06 12:14:24;;;;;;;4.40;4.00;;;;;;;;;;5004046;28;20314;-62
2022/12/06 12:16:55;;;;;;;4.63;4.23;;;;;;;;;;5004263;28;20238;-63
2022/12/06 12:19:23;;;;;;;7.33;6.60;;;;;;;;;;4983762;28;20218;-64
2022/12/06 12:21:50;;;;;;;5.17;4.67;;;;;;;;;;4997834;28;20203;-63
2022/12/06 12:24:39;;;;;;;6.10;5.50;;;;;;;;;;5004553;28;20289;-62
2022/12/06 12:27:31;;;;;;;5.20;4.70;;;;;;;;;;5014653;28;20246;-62
2022/12/06 12:30:17;;;;;;;5.30;4.80;;;;;;;;;;5003923;28;20299;-63
2022/12/06 12:32:45;;;;;;;5.73;4.77;;;;;;;;;;5030951;28;20238;-62
2022/12/06 12:35:24;;;;;;;6.67;5.40;;;;;;;;;;4996357;28;20273;-62
2022/12/06 12:37:56;;;;;;;6.67;5.40;;;;;;;;;;5001107;28;20798;-63
2022/12/06 12:40:28;;;;;;;6.10;5.33;;;;;;;;;;5006441;28;20222;-63
2022/12/06 12:42:57;;;;;;;6.00;5.23;;;;;;;;;;5002432;28;20214;-63
2022/12/06 12:45:26;;;;;;;6.27;5.60;;;;;;;;;;5002273;28;20400;-62
2022/12/06 12:47:57;;;;;;;21.57;13.43;;;;;;;;;;4992300;28;20314;-62
2022/12/06 12:50:26;;;;;;;21.07;11.80;;;;;;;;;;4989406;28;21338;-62
2022/12/06 12:52:53;;;;;;;6.00;5.40;;;;;;;;;;4989152;28;20209;-62
2022/12/06 12:55:24;;;;;;;7.70;6.40;;;;;;;;;;5001525;28;20235;-62
2022/12/06 12:57:52;;;;;;;7.93;6.50;;;;;;;;;;5010186;28;20561;-63
2022/12/06 13:00:24;;;;;;;6.37;5.70;;;;;;;;;;5009645;28;20210;-63
2022/12/06 13:03:00;;;;;;;8.40;6.50;;;;;;;;;;5003885;28;20298;-63
2022/12/06 13:05:35;;;;;;;21.43;12.80;;;;;;;;;;5021717;28;20276;-62
2022/12/06 13:08:14;;;;;;;4.57;3.97;;;;;;;;;;5014183;28;20229;-63
2022/12/06 13:10:44;;;;;;;7.53;4.63;;;;;;;;;;5010472;28;20642;-62
2022/12/06 13:13:18;;;;;;;24.30;16.47;;;;;;;;;;5012230;28;20250;-63
2022/12/06 13:15:47;;;;;;;7.57;5.27;;;;;;;;;;4991469;28;20799;-63
2022/12/06 13:18:18;;;;;;;6.40;4.97;;;;;;;;;;4986078;28;20214;-63
2022/12/06 13:20:47;;;;;;;6.97;5.77;;;;;;;;;;5002292;28;20342;-63
2022/12/06 13:23:19;;;;;;;6.80;6.10;;;;;;;;;;5004100;28;20210;-63
2022/12/06 13:25:49;;;;;;;8.80;6.60;;;;;;;;;;5003563;28;20238;-62
2022/12/06 13:28:18;;;;;;;10.77;7.43;;;;;;;;;;5009565;28;20223;-62
2022/12/06 13:30:47;;;;;;;10.63;7.63;;;;;;;;;;4985768;28;20813;-62
2022/12/06 13:33:19;;;;;;;10.57;8.10;;;;;;;;;;5007284;28;20309;-64
2022/12/06 13:35:59;;;;;;;10.87;8.50;;;;;;;;;;4988593;28;20199;-62
2022/12/06 13:38:36;;;;;;;9.50;8.50;;;;;;;;;;5000173;28;20338;-62
2022/12/06 13:41:07;;;;;;;10.67;8.53;;;;;;;;;;5005771;28;20237;-61
2022/12/06 13:43:48;;;;;;;10.40;8.97;;;;;;;;;;5006597;28;20270;-62
2022/12/06 13:46:20;;;;;;;13.20;9.40;;;;;;;;;;5005563;28;20222;-61
2022/12/06 13:48:58;;;;;;;11.50;9.37;;;;;;;;;;5007944;28;20223;-62
2022/12/06 13:51:31;;;;;;;10.83;9.40;;;;;;;;;;5009217;28;20292;-63
2022/12/06 13:54:05;;;;;;;20.27;14.00;;;;;;;;;;5011639;28;20261;-62
2022/12/06 13:56:32;;;;;;;11.83;9.57;;;;;;;;;;4986019;28;20199;-61
2022/12/06 13:59:03;;;;;;;14.93;11.10;;;;;;;;;;5007838;28;20304;-61
2022/12/06 14:01:34;;;;;;;11.03;8.77;;;;;;;;;;5009125;28;20293;-62
2022/12/06 14:04:25;;;;;;;10.60;8.30;;;;;;;;;;4992863;28;20241;-62
2022/12/06 14:06:54;;;;;;;10.93;8.23;;;;;;;;;;5015149;28;20306;-62
2022/12/06 14:09:22;;;;;;;10.23;8.37;;;;;;;;;;4989698;28;20296;-63
2022/12/06 14:11:51;;;;;;;11.67;9.80;;;;;;;;;;4990249;28;20306;-62
2022/12/06 14:14:20;;;;;;;12.33;8.37;;;;;;;;;;5002441;28;20317;-62
2022/12/06 14:16:49;;;;;;;9.67;8.10;;;;;;;;;;5004068;28;20293;-62
2022/12/06 14:19:20;;;;;;;10.97;8.50;;;;;;;;;;4987731;28;20693;-62
2022/12/06 14:21:55;;;;;;;11.23;8.03;;;;;;;;;;4991692;28;20268;-61
2022/12/06 14:24:26;;;;;;;10.37;8.40;;;;;;;;;;5010713;28;20340;-62
2022/12/06 14:26:54;;;;;;;12.73;8.30;;;;;;;;;;4989430;28;20298;-62
2022/12/06 14:29:23;;;;;;;8.97;7.30;;;;;;;;;;5002185;28;20572;-62
2022/12/06 14:31:51;;;;;;;14.70;10.10;;;;;;;;;;5003385;28;20380;-61
2022/12/06 14:34:25;;;;;;;9.57;7.60;;;;;;;;;;5008925;28;20708;-61
2022/12/06 14:36:53;;;;;;;28.00;14.33;;;;;;;;;;5003559;28;20293;-62
2022/12/06 14:39:28;;;;;;;20.13;12.17;;;;;;;;;;4994697;28;20454;-61
2022/12/06 14:44:48;;;;;;;26.63;14.90;;;;;;;;;;5009526;28;20239;-63
2022/12/06 14:47:20;;;;;;;46.87;21.97;;;;;;;;;;4994063;28;20284;-62
2022/12/06 14:52:59;;;;;;;76.53;36.10;;;;;;;;;;5009557;28;20256;-62
2022/12/06 14:55:28;;;;;;;42.53;22.23;;;;;;;;;;4991257;28;20235;-62
2022/12/06 14:58:00;;;;;;;53.77;25.83;;;;;;;;;;4985301;28;20214;-63
2022/12/06 15:00:36;;;;;;;52.10;29.27;;;;;;;;;;5009571;28;20294;-63
2022/12/06 15:03:10;;;;;;;16.27;10.73;;;;;;;;;;4989036;28;20332;-63
2022/12/06 15:05:39;;;;;;;9.40;7.93;;;;;;;;;;5009021;28;20241;-62
2022/12/06 15:08:30;;;;;;;10.37;8.10;;;;;;;;;;5006588;28;20313;-62
2022/12/06 15:14:11;;;;;;;10.63;9.30;;;;;;;;;;5016645;28;20242;-62
2022/12/06 15:16:39;;;;;;;10.23;8.40;;;;;;;;;;5009214;28;20214;-62
2022/12/06 15:19:11;;;;;;;11.20;8.63;;;;;;;;;;5005772;28;20309;-63
2022/12/06 15:21:38;;;;;;;9.20;8.27;;;;;;;;;;4985412;28;20724;-61
2022/12/06 15:24:32;;;;;;;9.67;8.47;;;;;;;;;;4979541;28;20647;-62
2022/12/06 15:27:00;;;;;;;11.17;8.53;;;;;;;;;;4997211;28;20312;-62